Terminal Aerodrome Forecast
Issued by NWS

Home | Current Version | Previous Version | Text Only | Print | Product List | Glossary On
Versions: 1 2 3 4 5 6 7 8 9 10 11 12 13 14 15 16
000
FTAK31 PAJN 292300
TAFAYA
TAF
PAYA 292327Z 3000/3024 10005KT 4SM -SHRA OVC025
      TEMPO 3000/3004 2SM -SHSN OVC015
     FM300400 10003KT 4SM -SHRASN BR OVC025
     FM300600 08002KT 6SM -SHSN OVC050
     FM300900 09003KT P6SM VCSH BKN050 OVC070
     FM301400 07003KT P6SM SCT120
      AMD LTD TO CLD VIS AND WIND 3001/3010=

USA.gov is the U.S. government's official web portal to all federal, state and local government web resources and services.